sensor_id;sensor_type;location;lat;lon;timestamp;pressure;altitude;pressure_sealevel;temperature;humidity
16094;BME280;8151;47.824;12.092;2023-09-19T00:01:21;96010.88;;;17.92;81.06
16094;BME280;8151;47.824;12.092;2023-09-19T00:03:49;96011.09;;;17.90;80.99
16094;BME280;8151;47.824;12.092;2023-09-19T00:06:18;96009.47;;;17.89;80.84
16094;BME280;8151;47.824;12.092;2023-09-19T00:08:55;96007.81;;;17.88;80.76
16094;BME280;8151;47.824;12.092;2023-09-19T00:11:26;96007.22;;;17.86;80.86
16094;BME280;8151;47.824;12.092;2023-09-19T00:13:57;95996.94;;;17.83;80.80
16094;BME280;8151;47.824;12.092;2023-09-19T00:16:26;96006.22;;;17.81;80.91
16094;BME280;8151;47.824;12.092;2023-09-19T00:19:05;95999.69;;;17.77;81.05
16094;BME280;8151;47.824;12.092;2023-09-19T00:21:36;95999.91;;;17.75;81.16
16094;BME280;8151;47.824;12.092;2023-09-19T00:24:06;95995.16;;;17.77;80.97
16094;BME280;8151;47.824;12.092;2023-09-19T00:26:36;96005.03;;;17.77;80.87
16094;BME280;8151;47.824;12.092;2023-09-19T00:29:06;96000.72;;;17.76;80.76
16094;BME280;8151;47.824;12.092;2023-09-19T00:31:35;96003.38;;;17.76;80.82
16094;BME280;8151;47.824;12.092;2023-09-19T00:34:05;96006.06;;;17.76;80.75
16094;BME280;8151;47.824;12.092;2023-09-19T00:36:33;96007.94;;;17.75;80.89
16094;BME280;8151;47.824;12.092;2023-09-19T00:39:02;96004.66;;;17.73;80.85
16094;BME280;8151;47.824;12.092;2023-09-19T00:41:32;96004.44;;;17.75;80.82
16094;BME280;8151;47.824;12.092;2023-09-19T00:44:02;96005.03;;;17.77;80.80
16094;BME280;8151;47.824;12.092;2023-09-19T00:46:33;96013.06;;;17.77;80.84
16094;BME280;8151;47.824;12.092;2023-09-19T00:49:01;96003.38;;;17.76;80.85
16094;BME280;8151;47.824;12.092;2023-09-19T00:51:30;96012.03;;;17.78;80.88
16094;BME280;8151;47.824;12.092;2023-09-19T00:53:59;96006.69;;;17.78;80.86
16094;BME280;8151;47.824;12.092;2023-09-19T00:56:28;96005.03;;;17.77;80.78
16094;BME280;8151;47.824;12.092;2023-09-19T00:58:56;96016.78;;;17.76;81.06
16094;BME280;8151;47.824;12.092;2023-09-19T01:01:25;96000.50;;;17.77;80.96
16094;BME280;8151;47.824;12.092;2023-09-19T01:03:55;96001.56;;;17.76;81.03
16094;BME280;8151;47.824;12.092;2023-09-19T01:06:25;96013.66;;;17.79;80.99
16094;BME280;8151;47.824;12.092;2023-09-19T01:08:54;96005.41;;;17.80;80.87
16094;BME280;8151;47.824;12.092;2023-09-19T01:11:29;96012.38;;;17.81;80.88
16094;BME280;8151;47.824;12.092;2023-09-19T01:14:12;96004.34;;;17.81;80.79
16094;BME280;8151;47.824;12.092;2023-09-19T01:16:49;96019.81;;;17.79;80.77
16094;BME280;8151;47.824;12.092;2023-09-19T01:19:52;96014.72;;;17.78;80.92
16094;BME280;8151;47.824;12.092;2023-09-19T01:22:32;96014.09;;;17.76;80.82
16094;BME280;8151;47.824;12.092;2023-09-19T01:25:26;96014.94;;;17.76;80.92
16094;BME280;8151;47.824;12.092;2023-09-19T01:28:09;96022.13;;;17.76;80.87
16094;BME280;8151;47.824;12.092;2023-09-19T01:30:44;96022.13;;;17.76;81.02
16094;BME280;8151;47.824;12.092;2023-09-19T01:33:14;96026.66;;;17.75;80.97
16094;BME280;8151;47.824;12.092;2023-09-19T01:35:44;96026.44;;;17.77;80.97
16094;BME280;8151;47.824;12.092;2023-09-19T01:38:12;96024.38;;;17.79;80.92
16094;BME280;8151;47.824;12.092;2023-09-19T01:40:43;96023.56;;;17.78;81.03
16094;BME280;8151;47.824;12.092;2023-09-19T01:43:18;96027.47;;;17.76;80.96
16094;BME280;8151;47.824;12.092;2023-09-19T01:45:54;96032.00;;;17.75;80.92
16094;BME280;8151;47.824;12.092;2023-09-19T01:48:35;96033.66;;;17.76;80.92
16094;BME280;8151;47.824;12.092;2023-09-19T01:51:07;96042.94;;;17.74;81.10
16094;BME280;8151;47.824;12.092;2023-09-19T01:53:47;96031.41;;;17.73;81.13
16094;BME280;8151;47.824;12.092;2023-09-19T01:56:25;96047.47;;;17.73;81.16
16094;BME280;8151;47.824;12.092;2023-09-19T01:58:59;96041.53;;;17.71;81.24
16094;BME280;8151;47.824;12.092;2023-09-19T02:01:33;96062.13;;;17.70;81.33
16094;BME280;8151;47.824;12.092;2023-09-19T02:04:04;96067.47;;;17.70;81.44
16094;BME280;8151;47.824;12.092;2023-09-19T02:06:33;96060.69;;;17.68;81.36
16094;BME280;8151;47.824;12.092;2023-09-19T02:09:02;96082.09;;;17.68;81.64
16094;BME280;8151;47.824;12.092;2023-09-19T02:11:31;96082.25;;;17.73;81.47
16094;BME280;8151;47.824;12.092;2023-09-19T02:13:59;96110.00;;;17.79;81.08
16094;BME280;8151;47.824;12.092;2023-09-19T02:16:28;96117.81;;;17.80;81.10
16094;BME280;8151;47.824;12.092;2023-09-19T02:18:58;96115.56;;;17.77;81.20
16094;BME280;8151;47.824;12.092;2023-09-19T02:21:27;96111.47;;;17.75;81.54
16094;BME280;8151;47.824;12.092;2023-09-19T02:23:56;96109.00;;;17.73;81.83
16094;BME280;8151;47.824;12.092;2023-09-19T02:26:26;96116.22;;;17.73;82.10
16094;BME280;8151;47.824;12.092;2023-09-19T02:28:54;96106.34;;;17.73;82.46
16094;BME280;8151;47.824;12.092;2023-09-19T02:31:23;96098.09;;;17.75;82.67
16094;BME280;8151;47.824;12.092;2023-09-19T02:33:51;96093.34;;;17.77;83.13
16094;BME280;8151;47.824;12.092;2023-09-19T02:36:22;96092.47;;;17.83;83.21
16094;BME280;8151;47.824;12.092;2023-09-19T02:38:50;96098.38;;;17.92;83.20
16094;BME280;8151;47.824;12.092;2023-09-19T02:41:19;96091.34;;;17.97;82.95
16094;BME280;8151;47.824;12.092;2023-09-19T02:43:47;96101.38;;;18.02;82.97
16094;BME280;8151;47.824;12.092;2023-09-19T02:46:16;96096.00;;;18.02;83.07
16094;BME280;8151;47.824;12.092;2023-09-19T02:48:45;96103.00;;;18.03;83.32
16094;BME280;8151;47.824;12.092;2023-09-19T02:51:14;96104.84;;;18.02;83.48
16094;BME280;8151;47.824;12.092;2023-09-19T02:53:44;96106.56;;;17.97;83.83
16094;BME280;8151;47.824;12.092;2023-09-19T02:56:14;96108.50;;;17.89;83.67
16094;BME280;8151;47.824;12.092;2023-09-19T02:58:43;96109.94;;;17.85;83.76
16094;BME280;8151;47.824;12.092;2023-09-19T03:01:20;96113.47;;;17.79;83.58
16094;BME280;8151;47.824;12.092;2023-09-19T03:03:49;96109.63;;;17.75;83.68
16094;BME280;8151;47.824;12.092;2023-09-19T03:06:18;96108.63;;;17.69;83.94
16094;BME280;8151;47.824;12.092;2023-09-19T03:08:48;96111.75;;;17.66;83.92
16094;BME280;8151;47.824;12.092;2023-09-19T03:11:18;96113.25;;;17.62;83.88
16094;BME280;8151;47.824;12.092;2023-09-19T03:13:53;96107.50;;;17.59;83.91
16094;BME280;8151;47.824;12.092;2023-09-19T03:16:22;96109.78;;;17.55;83.95
16094;BME280;8151;47.824;12.092;2023-09-19T03:18:52;96104.44;;;17.55;84.09
16094;BME280;8151;47.824;12.092;2023-09-19T03:21:21;96102.56;;;17.56;83.91
16094;BME280;8151;47.824;12.092;2023-09-19T03:23:51;96093.53;;;17.57;83.88
16094;BME280;8151;47.824;12.092;2023-09-19T03:26:20;96094.13;;;17.59;83.83
16094;BME280;8151;47.824;12.092;2023-09-19T03:28:48;96086.91;;;17.59;83.80
16094;BME280;8151;47.824;12.092;2023-09-19T03:31:17;96093.53;;;17.57;83.82
16094;BME280;8151;47.824;12.092;2023-09-19T03:33:46;96100.13;;;17.54;83.79
16094;BME280;8151;47.824;12.092;2023-09-19T03:36:14;96097.06;;;17.50;83.96
16094;BME280;8151;47.824;12.092;2023-09-19T03:38:43;96101.59;;;17.50;83.86
16094;BME280;8151;47.824;12.092;2023-09-19T03:41:13;96094.38;;;17.50;83.91
16094;BME280;8151;47.824;12.092;2023-09-19T03:43:44;96100.78;;;17.49;83.88
16094;BME280;8151;47.824;12.092;2023-09-19T03:46:13;96104.88;;;17.52;83.89
16094;BME280;8151;47.824;12.092;2023-09-19T03:48:42;96106.06;;;17.56;83.66
16094;BME280;8151;47.824;12.092;2023-09-19T03:51:11;96103.34;;;17.63;83.51
16094;BME280;8151;47.824;12.092;2023-09-19T03:53:39;96095.72;;;17.66;83.35
16094;BME280;8151;47.824;12.092;2023-09-19T03:56:08;96099.78;;;17.69;83.39
16094;BME280;8151;47.824;12.092;2023-09-19T03:58:38;96096.53;;;17.67;83.46
16094;BME280;8151;47.824;12.092;2023-09-19T04:01:07;96092.44;;;17.64;83.57
16094;BME280;8151;47.824;12.092;2023-09-19T04:03:36;96101.06;;;17.66;83.50
16094;BME280;8151;47.824;12.092;2023-09-19T04:06:13;96103.50;;;17.68;83.44
16094;BME280;8151;47.824;12.092;2023-09-19T04:08:42;96109.47;;;17.70;83.40
16094;BME280;8151;47.824;12.092;2023-09-19T04:11:11;96110.88;;;17.73;83.45
16094;BME280;8151;47.824;12.092;2023-09-19T04:13:42;96111.31;;;17.69;83.52
16094;BME280;8151;47.824;12.092;2023-09-19T04:16:10;96110.06;;;17.72;83.59
16094;BME280;8151;47.824;12.092;2023-09-19T04:18:49;96119.50;;;17.75;83.33
16094;BME280;8151;47.824;12.092;2023-09-19T04:21:17;96112.75;;;17.72;83.43
16094;BME280;8151;47.824;12.092;2023-09-19T04:23:46;96120.97;;;17.70;83.45
16094;BME280;8151;47.824;12.092;2023-09-19T04:26:15;96120.78;;;17.72;83.41
16094;BME280;8151;47.824;12.092;2023-09-19T04:28:45;96115.19;;;17.74;83.18
16094;BME280;8151;47.824;12.092;2023-09-19T04:31:14;96130.00;;;17.76;83.15
16094;BME280;8151;47.824;12.092;2023-09-19T04:33:43;96135.13;;;17.78;83.00
16094;BME280;8151;47.824;12.092;2023-09-19T04:36:12;96139.03;;;17.75;83.10
16094;BME280;8151;47.824;12.092;2023-09-19T04:39:01;96129.59;;;17.73;83.17
16094;BME280;8151;47.824;12.092;2023-09-19T04:41:32;96142.78;;;17.74;83.04
16094;BME280;8151;47.824;12.092;2023-09-19T04:44:02;96138.44;;;17.73;83.13
16094;BME280;8151;47.824;12.092;2023-09-19T04:46:31;96138.44;;;17.73;83.15
16094;BME280;8151;47.824;12.092;2023-09-19T04:48:59;96141.56;;;17.70;83.32
16094;BME280;8151;47.824;12.092;2023-09-19T04:51:28;96150.03;;;17.67;83.42
16094;BME280;8151;47.824;12.092;2023-09-19T04:54:01;96153.72;;;17.66;83.56
16094;BME280;8151;47.824;12.092;2023-09-19T04:56:29;96158.72;;;17.62;83.59
16094;BME280;8151;47.824;12.092;2023-09-19T04:58:59;96161.16;;;17.64;83.57
16094;BME280;8151;47.824;12.092;2023-09-19T05:01:29;96156.66;;;17.64;83.51
16094;BME280;8151;47.824;12.092;2023-09-19T05:03:57;96170.84;;;17.65;83.35
16094;BME280;8151;47.824;12.092;2023-09-19T05:06:29;96171.44;;;17.67;83.12
16094;BME280;8151;47.824;12.092;2023-09-19T05:08:57;96170.38;;;17.68;83.01
16094;BME280;8151;47.824;12.092;2023-09-19T05:11:27;96179.84;;;17.70;82.86
16094;BME280;8151;47.824;12.092;2023-09-19T05:13:57;96185.19;;;17.70;82.54
16094;BME280;8151;47.824;12.092;2023-09-19T05:16:32;96184.38;;;17.70;82.35
16094;BME280;8151;47.824;12.092;2023-09-19T05:19:01;96191.38;;;17.71;82.23
16094;BME280;8151;47.824;12.092;2023-09-19T05:21:30;96187.88;;;17.70;82.14
16094;BME280;8151;47.824;12.092;2023-09-19T05:24:00;96195.25;;;17.75;81.88
16094;BME280;8151;47.824;12.092;2023-09-19T05:26:29;96196.69;;;17.78;81.66
16094;BME280;8151;47.824;12.092;2023-09-19T05:28:57;96204.25;;;17.81;81.51
16094;BME280;8151;47.824;12.092;2023-09-19T05:31:26;96211.03;;;17.83;81.25
16094;BME280;8151;47.824;12.092;2023-09-19T05:33:56;96207.34;;;17.84;80.79
16094;BME280;8151;47.824;12.092;2023-09-19T05:36:25;96211.22;;;17.88;80.55
16094;BME280;8151;47.824;12.092;2023-09-19T05:38:53;96214.09;;;17.94;80.24
16094;BME280;8151;47.824;12.092;2023-09-19T05:41:22;96219.81;;;17.97;80.05
16094;BME280;8151;47.824;12.092;2023-09-19T05:43:50;96221.84;;;18.02;79.86
16094;BME280;8151;47.824;12.092;2023-09-19T05:46:19;96228.38;;;18.06;79.71
16094;BME280;8151;47.824;12.092;2023-09-19T05:48:47;96226.91;;;18.10;79.56
16094;BME280;8151;47.824;12.092;2023-09-19T05:51:18;96235.13;;;18.15;79.68
16094;BME280;8151;47.824;12.092;2023-09-19T05:53:48;96231.16;;;18.18;79.84
16094;BME280;8151;47.824;12.092;2023-09-19T05:56:17;96233.63;;;18.19;80.16
16094;BME280;8151;47.824;12.092;2023-09-19T05:58:46;96239.81;;;18.20;80.42
16094;BME280;8151;47.824;12.092;2023-09-19T06:01:14;96237.94;;;18.20;80.54
16094;BME280;8151;47.824;12.092;2023-09-19T06:03:43;96234.03;;;18.23;80.86
16094;BME280;8151;47.824;12.092;2023-09-19T06:06:11;96241.16;;;18.29;81.09
16094;BME280;8151;47.824;12.092;2023-09-19T06:08:41;96238.88;;;18.33;81.08
16094;BME280;8151;47.824;12.092;2023-09-19T06:11:11;96242.97;;;18.35;81.16
16094;BME280;8151;47.824;12.092;2023-09-19T06:13:40;96244.38;;;18.38;81.13
16094;BME280;8151;47.824;12.092;2023-09-19T06:16:09;96243.94;;;18.41;80.90
16094;BME280;8151;47.824;12.092;2023-09-19T06:18:37;96253.16;;;18.45;80.49
16094;BME280;8151;47.824;12.092;2023-09-19T06:21:06;96246.19;;;18.44;80.21
16094;BME280;8151;47.824;12.092;2023-09-19T06:23:34;96252.41;;;18.38;80.34
16094;BME280;8151;47.824;12.092;2023-09-19T06:26:05;96252.47;;;18.31;80.36
16094;BME280;8151;47.824;12.092;2023-09-19T06:28:34;96261.19;;;18.26;80.68
16094;BME280;8151;47.824;12.092;2023-09-19T06:31:02;96254.63;;;18.22;80.73
16094;BME280;8151;47.824;12.092;2023-09-19T06:33:35;96255.06;;;18.19;80.91
16094;BME280;8151;47.824;12.092;2023-09-19T06:36:06;96254.00;;;18.20;80.60
16094;BME280;8151;47.824;12.092;2023-09-19T06:38:35;96262.50;;;18.17;80.64
16094;BME280;8151;47.824;12.092;2023-09-19T06:41:06;96261.69;;;18.17;80.85
16094;BME280;8151;47.824;12.092;2023-09-19T06:43:35;96261.28;;;18.13;81.09
16094;BME280;8151;47.824;12.092;2023-09-19T06:46:05;96271.78;;;18.15;80.98
16094;BME280;8151;47.824;12.092;2023-09-19T06:48:34;96262.69;;;18.16;81.02
16094;BME280;8151;47.824;12.092;2023-09-19T06:51:03;96261.88;;;18.15;80.96
16094;BME280;8151;47.824;12.092;2023-09-19T06:53:32;96264.34;;;18.17;80.90
16094;BME280;8151;47.824;12.092;2023-09-19T06:56:03;96275.28;;;18.15;81.05
16094;BME280;8151;47.824;12.092;2023-09-19T06:58:35;96276.09;;;18.16;81.03
16094;BME280;8151;47.824;12.092;2023-09-19T07:01:04;96269.13;;;18.15;81.15
16094;BME280;8151;47.824;12.092;2023-09-19T07:03:32;96269.47;;;18.18;81.16
16094;BME280;8151;47.824;12.092;2023-09-19T07:06:01;96267.78;;;18.24;81.11
16094;BME280;8151;47.824;12.092;2023-09-19T07:08:31;96284.22;;;18.27;80.92
16094;BME280;8151;47.824;12.092;2023-09-19T07:11:00;96277.63;;;18.30;80.75
16094;BME280;8151;47.824;12.092;2023-09-19T07:13:29;96285.00;;;18.35;80.84
16094;BME280;8151;47.824;12.092;2023-09-19T07:15:59;96278.97;;;18.39;80.88
16094;BME280;8151;47.824;12.092;2023-09-19T07:18:27;96293.97;;;18.47;80.83
16094;BME280;8151;47.824;12.092;2023-09-19T07:20:57;96289.38;;;18.54;80.82
16094;BME280;8151;47.824;12.092;2023-09-19T07:23:28;96299.19;;;18.60;80.48
16094;BME280;8151;47.824;12.092;2023-09-19T07:25:57;96296.31;;;18.62;80.35
16094;BME280;8151;47.824;12.092;2023-09-19T07:28:26;96303.66;;;18.66;80.43
16094;BME280;8151;47.824;12.092;2023-09-19T07:30:55;96300.38;;;18.64;80.48
16094;BME280;8151;47.824;12.092;2023-09-19T07:33:25;96298.78;;;18.63;80.48
16094;BME280;8151;47.824;12.092;2023-09-19T07:35:55;96305.09;;;18.69;80.61
16094;BME280;8151;47.824;12.092;2023-09-19T07:38:31;96306.09;;;18.75;80.57
16094;BME280;8151;47.824;12.092;2023-09-19T07:41:00;96308.72;;;18.81;80.44
16094;BME280;8151;47.824;12.092;2023-09-19T07:43:29;96308.63;;;18.88;80.24
16094;BME280;8151;47.824;12.092;2023-09-19T07:46:03;96308.22;;;18.91;80.14
16094;BME280;8151;47.824;12.092;2023-09-19T07:48:35;96314.75;;;18.95;80.12
16094;BME280;8151;47.824;12.092;2023-09-19T07:51:06;96320.88;;;19.02;80.09
16094;BME280;8151;47.824;12.092;2023-09-19T07:53:35;96311.94;;;19.08;79.81
16094;BME280;8151;47.824;12.092;2023-09-19T07:56:06;96311.63;;;19.17;79.95
16094;BME280;8151;47.824;12.092;2023-09-19T07:58:36;96313.78;;;19.26;79.73
16094;BME280;8151;47.824;12.092;2023-09-19T08:01:09;96312.28;;;19.31;79.56
16094;BME280;8151;47.824;12.092;2023-09-19T08:03:39;96311.19;;;19.38;79.44
16094;BME280;8151;47.824;12.092;2023-09-19T08:06:10;96318.09;;;19.46;79.29
16094;BME280;8151;47.824;12.092;2023-09-19T08:08:41;96311.59;;;19.54;78.81
16094;BME280;8151;47.824;12.092;2023-09-19T08:11:10;96314.44;;;19.59;78.44
16094;BME280;8151;47.824;12.092;2023-09-19T08:13:40;96312.03;;;19.69;78.15
16094;BME280;8151;47.824;12.092;2023-09-19T08:16:11;96314.56;;;19.82;77.99
16094;BME280;8151;47.824;12.092;2023-09-19T08:18:41;96311.53;;;19.91;77.86
16094;BME280;8151;47.824;12.092;2023-09-19T08:21:11;96306.75;;;19.93;77.78
16094;BME280;8151;47.824;12.092;2023-09-19T08:23:44;96314.38;;;19.96;77.64
16094;BME280;8151;47.824;12.092;2023-09-19T08:26:12;96314.16;;;19.97;77.35
16094;BME280;8151;47.824;12.092;2023-09-19T08:28:41;96317.88;;;19.96;77.51
16094;BME280;8151;47.824;12.092;2023-09-19T08:31:09;96329.91;;;19.94;77.50
16094;BME280;8151;47.824;12.092;2023-09-19T08:33:39;96317.50;;;19.93;77.88
16094;BME280;8151;47.824;12.092;2023-09-19T08:36:10;96313.19;;;19.92;77.79
16094;BME280;8151;47.824;12.092;2023-09-19T08:38:41;96315.75;;;19.86;77.78
16094;BME280;8151;47.824;12.092;2023-09-19T08:41:09;96322.41;;;19.84;77.79
16094;BME280;8151;47.824;12.092;2023-09-19T08:43:38;96316.81;;;19.85;77.90
16094;BME280;8151;47.824;12.092;2023-09-19T08:46:10;96318.44;;;19.86;77.83
16094;BME280;8151;47.824;12.092;2023-09-19T08:48:45;96309.13;;;19.89;77.81
16094;BME280;8151;47.824;12.092;2023-09-19T08:51:27;96307.03;;;19.91;77.56
16094;BME280;8151;47.824;12.092;2023-09-19T08:54:03;96315.88;;;19.92;77.58
16094;BME280;8151;47.824;12.092;2023-09-19T08:56:35;96324.91;;;19.97;77.59
16094;BME280;8151;47.824;12.092;2023-09-19T08:59:07;96302.84;;;20.07;77.08
16094;BME280;8151;47.824;12.092;2023-09-19T09:01:36;96307.66;;;20.17;76.65
16094;BME280;8151;47.824;12.092;2023-09-19T09:04:08;96315.97;;;20.27;76.49
16094;BME280;8151;47.824;12.092;2023-09-19T09:06:42;96299.75;;;20.34;76.24
16094;BME280;8151;47.824;12.092;2023-09-19T09:09:12;96299.88;;;20.39;76.04
16094;BME280;8151;47.824;12.092;2023-09-19T09:11:41;96307.00;;;20.45;76.15
16094;BME280;8151;47.824;12.092;2023-09-19T09:14:09;96308.19;;;20.49;75.81
16094;BME280;8151;47.824;12.092;2023-09-19T09:16:38;96309.59;;;20.52;75.65
16094;BME280;8151;47.824;12.092;2023-09-19T09:19:07;96305.97;;;20.58;75.74
16094;BME280;8151;47.824;12.092;2023-09-19T09:21:35;96315.59;;;20.65;75.45
16094;BME280;8151;47.824;12.092;2023-09-19T09:24:29;96306.34;;;20.73;74.57
16094;BME280;8151;47.824;12.092;2023-09-19T09:27:03;96311.59;;;20.80;74.77
16094;BME280;8151;47.824;12.092;2023-09-19T09:29:41;96301.53;;;20.87;74.50
16094;BME280;8151;47.824;12.092;2023-09-19T09:32:24;96305.41;;;20.91;74.33
16094;BME280;8151;47.824;12.092;2023-09-19T09:34:54;96304.94;;;20.94;74.32
16094;BME280;8151;47.824;12.092;2023-09-19T09:37:28;96306.69;;;21.00;73.88
16094;BME280;8151;47.824;12.092;2023-09-19T09:40:01;96320.94;;;21.13;72.82
16094;BME280;8151;47.824;12.092;2023-09-19T09:42:47;96317.16;;;21.26;71.63
16094;BME280;8151;47.824;12.092;2023-09-19T09:45:20;96305.81;;;21.35;70.58
16094;BME280;8151;47.824;12.092;2023-09-19T09:47:55;96298.28;;;21.49;69.82
16094;BME280;8151;47.824;12.092;2023-09-19T09:50:28;96301.75;;;21.61;69.05
16094;BME280;8151;47.824;12.092;2023-09-19T09:53:20;96297.41;;;21.72;68.77
16094;BME280;8151;47.824;12.092;2023-09-19T09:56:01;96299.94;;;21.79;68.79
16094;BME280;8151;47.824;12.092;2023-09-19T09:58:33;96301.59;;;21.80;68.60
16094;BME280;8151;47.824;12.092;2023-09-19T10:01:03;96297.75;;;21.76;68.27
16094;BME280;8151;47.824;12.092;2023-09-19T10:03:38;96296.94;;;21.75;67.80
16094;BME280;8151;47.824;12.092;2023-09-19T10:06:10;96301.59;;;21.80;67.38
16094;BME280;8151;47.824;12.092;2023-09-19T10:09:02;96298.03;;;21.91;66.89
16094;BME280;8151;47.824;12.092;2023-09-19T10:11:42;96301.38;;;21.98;66.54
16094;BME280;8151;47.824;12.092;2023-09-19T10:14:12;96297.97;;;22.03;66.21
16094;BME280;8151;47.824;12.092;2023-09-19T10:16:46;96294.69;;;22.01;65.76
16094;BME280;8151;47.824;12.092;2023-09-19T10:19:20;96289.53;;;21.99;66.00
16094;BME280;8151;47.824;12.092;2023-09-19T10:21:54;96301.38;;;21.98;66.03
16094;BME280;8151;47.824;12.092;2023-09-19T10:24:25;96298.81;;;21.92;65.83
16094;BME280;8151;47.824;12.092;2023-09-19T10:26:56;96306.09;;;21.91;65.82
16094;BME280;8151;47.824;12.092;2023-09-19T10:29:26;96305.03;;;21.92;65.86
16094;BME280;8151;47.824;12.092;2023-09-19T10:31:58;96305.03;;;21.92;65.47
16094;BME280;8151;47.824;12.092;2023-09-19T10:34:29;96303.47;;;21.96;65.44
16094;BME280;8151;47.824;12.092;2023-09-19T10:36:59;96302.78;;;22.01;65.16
16094;BME280;8151;47.824;12.092;2023-09-19T10:39:33;96309.31;;;22.05;64.77
16094;BME280;8151;47.824;12.092;2023-09-19T10:42:05;96309.88;;;22.07;64.31
16094;BME280;8151;47.824;12.092;2023-09-19T10:44:37;96302.84;;;22.06;63.82
16094;BME280;8151;47.824;12.092;2023-09-19T10:47:07;96314.47;;;22.07;63.79
16094;BME280;8151;47.824;12.092;2023-09-19T10:49:43;96308.91;;;22.13;63.47
16094;BME280;8151;47.824;12.092;2023-09-19T10:52:14;96308.25;;;22.23;63.26
16094;BME280;8151;47.824;12.092;2023-09-19T10:54:48;96303.66;;;22.35;62.73
16094;BME280;8151;47.824;12.092;2023-09-19T10:57:21;96310.91;;;22.52;62.26
16094;BME280;8151;47.824;12.092;2023-09-19T11:00:04;96305.34;;;22.58;61.87
16094;BME280;8151;47.824;12.092;2023-09-19T11:03:17;96305.53;;;22.69;62.48
16094;BME280;8151;47.824;12.092;2023-09-19T11:06:02;96307.56;;;22.78;63.05
16094;BME280;8151;47.824;12.092;2023-09-19T11:08:52;96315.78;;;22.89;62.65
16094;BME280;8151;47.824;12.092;2023-09-19T11:11:56;96302.41;;;22.77;62.65
16094;BME280;8151;47.824;12.092;2023-09-19T11:14:42;96305.94;;;22.60;62.54
16094;BME280;8151;47.824;12.092;2023-09-19T11:17:31;96301.69;;;22.65;62.24
16094;BME280;8151;47.824;12.092;2023-09-19T11:20:19;96304.22;;;22.71;61.47
16094;BME280;8151;47.824;12.092;2023-09-19T11:23:19;96303.88;;;22.68;61.19
16094;BME280;8151;47.824;12.092;2023-09-19T11:25:53;96297.34;;;22.64;61.27
16094;BME280;8151;47.824;12.092;2023-09-19T11:28:34;96288.69;;;22.61;59.89
16094;BME280;8151;47.824;12.092;2023-09-19T11:34:54;96292.53;;;22.66;58.89
16094;BME280;8151;47.824;12.092;2023-09-19T11:37:59;96291.38;;;22.61;58.57
16094;BME280;8151;47.824;12.092;2023-09-19T11:40:35;96296.63;;;22.68;59.18
16094;BME280;8151;47.824;12.092;2023-09-19T11:43:28;96289.50;;;22.79;58.66
16094;BME280;8151;47.824;12.092;2023-09-19T11:46:10;96290.34;;;23.02;58.88
16094;BME280;8151;47.824;12.092;2023-09-19T11:48:39;96286.38;;;23.26;58.34
16094;BME280;8151;47.824;12.092;2023-09-19T11:51:14;96282.59;;;23.49;57.78
16094;BME280;8151;47.824;12.092;2023-09-19T11:53:46;96291.72;;;23.65;57.13
16094;BME280;8151;47.824;12.092;2023-09-19T11:56:18;96282.72;;;23.59;57.01
16094;BME280;8151;47.824;12.092;2023-09-19T11:58:49;96278.13;;;23.60;57.22
16094;BME280;8151;47.824;12.092;2023-09-19T12:01:23;96274.97;;;23.68;57.58
16094;BME280;8151;47.824;12.092;2023-09-19T12:03:53;96273.81;;;23.81;57.87
16094;BME280;8151;47.824;12.092;2023-09-19T12:06:26;96271.75;;;23.93;57.62
16094;BME280;8151;47.824;12.092;2023-09-19T12:08:56;96274.03;;;24.07;58.06
16094;BME280;8151;47.824;12.092;2023-09-19T12:11:29;96268.22;;;24.20;57.51
16094;BME280;8151;47.824;12.092;2023-09-19T12:14:02;96265.81;;;24.24;57.17
16094;BME280;8151;47.824;12.092;2023-09-19T12:16:31;96279.84;;;24.21;56.09
16094;BME280;8151;47.824;12.092;2023-09-19T12:19:19;96283.50;;;24.04;54.57
16094;BME280;8151;47.824;12.092;2023-09-19T12:22:02;96280.56;;;23.84;54.92
16094;BME280;8151;47.824;12.092;2023-09-19T12:24:33;96282.41;;;23.78;54.35
16094;BME280;8151;47.824;12.092;2023-09-19T12:27:05;96282.16;;;23.80;53.82
16094;BME280;8151;47.824;12.092;2023-09-19T12:29:43;96281.81;;;23.76;53.52
16094;BME280;8151;47.824;12.092;2023-09-19T12:32:12;96285.53;;;23.70;53.07
16094;BME280;8151;47.824;12.092;2023-09-19T12:34:50;96270.44;;;23.74;53.00
16094;BME280;8151;47.824;12.092;2023-09-19T12:37:22;96277.09;;;23.88;52.68
16094;BME280;8151;47.824;12.092;2023-09-19T12:40:03;96272.63;;;23.99;52.04
16094;BME280;8151;47.824;12.092;2023-09-19T12:42:45;96272.16;;;24.07;51.58
16094;BME280;8151;47.824;12.092;2023-09-19T12:45:15;96263.00;;;24.13;51.32
16094;BME280;8151;47.824;12.092;2023-09-19T12:48:19;96258.22;;;24.21;50.87
16094;BME280;8151;47.824;12.092;2023-09-19T12:51:04;96264.41;;;24.21;50.77
16094;BME280;8151;47.824;12.092;2023-09-19T12:53:38;96264.41;;;24.21;51.14
16094;BME280;8151;47.824;12.092;2023-09-19T12:56:11;96263.97;;;24.29;50.76
16094;BME280;8151;47.824;12.092;2023-09-19T12:58:51;96258.75;;;24.23;49.97
16094;BME280;8151;47.824;12.092;2023-09-19T13:01:22;96266.84;;;24.17;50.11
16094;BME280;8151;47.824;12.092;2023-09-19T13:04:10;96259.28;;;24.20;49.33
16094;BME280;8151;47.824;12.092;2023-09-19T13:06:40;96265.53;;;24.25;49.32
16094;BME280;8151;47.824;12.092;2023-09-19T13:09:12;96257.72;;;24.29;49.95
16094;BME280;8151;47.824;12.092;2023-09-19T13:11:42;96253.44;;;24.33;49.32
16094;BME280;8151;47.824;12.092;2023-09-19T13:14:16;96255.31;;;24.32;49.35
16094;BME280;8151;47.824;12.092;2023-09-19T13:16:59;96251.88;;;24.37;49.26
16094;BME280;8151;47.824;12.092;2023-09-19T13:19:38;96254.84;;;24.41;49.45
16094;BME280;8151;47.824;12.092;2023-09-19T13:22:36;96257.59;;;24.46;48.66
16094;BME280;8151;47.824;12.092;2023-09-19T13:25:08;96243.25;;;24.45;49.26
16094;BME280;8151;47.824;12.092;2023-09-19T13:27:42;96249.84;;;24.54;48.84
16094;BME280;8151;47.824;12.092;2023-09-19T13:30:12;96249.31;;;24.58;48.43
16094;BME280;8151;47.824;12.092;2023-09-19T13:32:42;96246.59;;;24.52;48.99